Yarrawonga, Victoria

4:39 AM AEST on September 24, 2014 (GMT +1000)
Albury | Change Station
CLOSE
Current Station
Airport
Location: Albury,
Elevation: 541 ft
Nearby Weather Stations

Elev 541 ft 36.07 °S, 146.96 °E | Updated 39 minutes ago

Overcast
Overcast
52 °F
Feels Like 52 °F
N
1
Wind Variable Wind from NE

Today
High -- | Low -- °F
--% Chance of Precip.
Yesterday
High -- | Low -- °F
Precip. -- in
6:03 AM 6:13 PM
Waning Crescent, 0% visible
Pressure 30.12 in
Visibility 6.2 miles
Clouds Scattered Clouds 6300 ft
Overcast 8600 ft
Overcast 11000 ft
Dew Point 46 °F
Humidity 82%
Rainfall 0.00 in
Snow Depth Not available.
UV 0 out of 12
Pollen Not available.
Air Quality Not available.
Flu Activity Not available.
METAR YMAY 231800Z AUTO 04001KT 9999 // SCT063 OVC086 OVC110 11/08 Q1020

More Conditions Fewer Conditions

Pressure 30.12 in
Visibility 6.2 miles
Clouds Scattered Clouds 6300 ft
Overcast 8600 ft
Overcast 11000 ft
Dew Point 46 °F
Humidity 82%
Rainfall 0.00 in
Snow Depth Not available.
UV 0 out of 12
Pollen Not available.
Air Quality Not available.
Flu Activity Not available.
METAR YMAY 231800Z AUTO 04001KT 9999 // SCT063 OVC086 OVC110 11/08 Q1020

More Conditions Fewer Conditions

10-Day Weather Forecast

Almanac

Astronomy

Sep. 24, 2014 Rise Set
Actual Time 6:03 AM AEST 6:13 PM AEST
Civil Twilight 5:37 AM AEST 6:39 PM AEST
Nautical Twilight 5:08 AM AEST 7:09 PM AEST
Astronomical Twilight 4:37 AM AEST 7:39 PM AEST
Moon 5:46 AM AEST (9/24) 6:15 PM AEST (9/24)
Length of Visible Light 13h 01m
Length of Day
12h 10m
Tomorrow will be 2m 16s longer.
Waning Crescent, 0% of the Moon is Illuminated
Sep 23
Waning Crescent
Sep 24
New
Oct 1
First Quarter
Oct 8
Full
Oct 15
Last Quarter

Yesterday's Extremes

Country Highs Country Lows

Community

WunderPhotos

Upload Photos

1,755,775 photos uploaded!

Nearby

Snow Depth

Not available.

Earthquake Activity

City Distance Mag. Time & Date
No recent earthquake activity has been reported nearby.
Minimum magnitude displayed is 2.5.

Coastal Water Temperatures

Place Temperature
No Stations Reporting

Nearby Weather Stations